sensor_id;sensor_type;location;lat;lon;timestamp;P1;P2;P0
47982;PMS5003;33751;50.816;-1.214;2024-01-27T00:01:53;8;6;
47982;PMS5003;33751;50.816;-1.214;2024-01-27T00:04:19;8;7;
47982;PMS5003;33751;50.816;-1.214;2024-01-27T00:06:46;6;6;
47982;PMS5003;33751;50.816;-1.214;2024-01-27T00:09:13;8;8;
47982;PMS5003;33751;50.816;-1.214;2024-01-27T00:11:39;8;6;
47982;PMS5003;33751;50.816;-1.214;2024-01-27T00:14:07;7;6;
47982;PMS5003;33751;50.816;-1.214;2024-01-27T00:16:33;9;7;
47982;PMS5003;33751;50.816;-1.214;2024-01-27T00:19:00;7;7;
47982;PMS5003;33751;50.816;-1.214;2024-01-27T00:21:26;7;7;
47982;PMS5003;33751;50.816;-1.214;2024-01-27T00:23:53;8;7;
47982;PMS5003;33751;50.816;-1.214;2024-01-27T00:26:20;10;9;
47982;PMS5003;33751;50.816;-1.214;2024-01-27T00:28:47;7;7;
47982;PMS5003;33751;50.816;-1.214;2024-01-27T00:31:14;8;8;
47982;PMS5003;33751;50.816;-1.214;2024-01-27T00:33:41;15;9;
47982;PMS5003;33751;50.816;-1.214;2024-01-27T00:36:07;10;8;
47982;PMS5003;33751;50.816;-1.214;2024-01-27T00:38:35;7;7;
47982;PMS5003;33751;50.816;-1.214;2024-01-27T00:41:01;7;6;
47982;PMS5003;33751;50.816;-1.214;2024-01-27T00:43:28;11;8;
47982;PMS5003;33751;50.816;-1.214;2024-01-27T00:45:55;9;9;
47982;PMS5003;33751;50.816;-1.214;2024-01-27T00:48:21;8;7;
47982;PMS5003;33751;50.816;-1.214;2024-01-27T00:50:48;15;9;
47982;PMS5003;33751;50.816;-1.214;2024-01-27T00:53:15;11;9;
47982;PMS5003;33751;50.816;-1.214;2024-01-27T00:55:42;11;10;
47982;PMS5003;33751;50.816;-1.214;2024-01-27T00:58:08;8;8;
47982;PMS5003;33751;50.816;-1.214;2024-01-27T01:00:36;9;9;
47982;PMS5003;33751;50.816;-1.214;2024-01-27T01:03:03;9;7;
47982;PMS5003;33751;50.816;-1.214;2024-01-27T01:05:30;9;9;
47982;PMS5003;33751;50.816;-1.214;2024-01-27T01:07:57;8;8;
47982;PMS5003;33751;50.816;-1.214;2024-01-27T01:10:23;11;10;
47982;PMS5003;33751;50.816;-1.214;2024-01-27T01:12:50;11;9;
47982;PMS5003;33751;50.816;-1.214;2024-01-27T01:15:18;10;8;
47982;PMS5003;33751;50.816;-1.214;2024-01-27T01:17:45;9;7;
47982;PMS5003;33751;50.816;-1.214;2024-01-27T01:20:11;8;8;
47982;PMS5003;33751;50.816;-1.214;2024-01-27T01:22:38;12;10;
47982;PMS5003;33751;50.816;-1.214;2024-01-27T01:25:05;11;9;
47982;PMS5003;33751;50.816;-1.214;2024-01-27T01:27:33;10;9;
47982;PMS5003;33751;50.816;-1.214;2024-01-27T01:29:59;8;8;
47982;PMS5003;33751;50.816;-1.214;2024-01-27T01:32:26;15;10;
47982;PMS5003;33751;50.816;-1.214;2024-01-27T01:34:53;12;9;
47982;PMS5003;33751;50.816;-1.214;2024-01-27T01:37:20;11;11;
47982;PMS5003;33751;50.816;-1.214;2024-01-27T01:39:46;10;10;
47982;PMS5003;33751;50.816;-1.214;2024-01-27T01:42:13;13;10;
47982;PMS5003;33751;50.816;-1.214;2024-01-27T01:44:40;9;9;
47982;PMS5003;33751;50.816;-1.214;2024-01-27T01:47:06;9;8;
47982;PMS5003;33751;50.816;-1.214;2024-01-27T01:49:34;11;9;
47982;PMS5003;33751;50.816;-1.214;2024-01-27T01:52:02;10;10;
47982;PMS5003;33751;50.816;-1.214;2024-01-27T01:54:30;10;9;
47982;PMS5003;33751;50.816;-1.214;2024-01-27T01:56:57;12;11;
47982;PMS5003;33751;50.816;-1.214;2024-01-27T01:59:25;9;8;
47982;PMS5003;33751;50.816;-1.214;2024-01-27T02:01:52;13;11;
47982;PMS5003;33751;50.816;-1.214;2024-01-27T02:04:19;10;9;
47982;PMS5003;33751;50.816;-1.214;2024-01-27T02:06:46;11;9;
47982;PMS5003;33751;50.816;-1.214;2024-01-27T02:09:13;8;7;
47982;PMS5003;33751;50.816;-1.214;2024-01-27T02:11:41;8;7;
47982;PMS5003;33751;50.816;-1.214;2024-01-27T02:14:08;12;10;
47982;PMS5003;33751;50.816;-1.214;2024-01-27T02:16:35;10;10;
47982;PMS5003;33751;50.816;-1.214;2024-01-27T02:19:02;8;8;
47982;PMS5003;33751;50.816;-1.214;2024-01-27T02:21:29;11;8;
47982;PMS5003;33751;50.816;-1.214;2024-01-27T02:23:55;9;9;
47982;PMS5003;33751;50.816;-1.214;2024-01-27T02:26:22;12;11;
47982;PMS5003;33751;50.816;-1.214;2024-01-27T02:28:48;8;8;
47982;PMS5003;33751;50.816;-1.214;2024-01-27T02:31:15;11;10;
47982;PMS5003;33751;50.816;-1.214;2024-01-27T02:33:41;13;7;
47982;PMS5003;33751;50.816;-1.214;2024-01-27T02:36:09;7;7;
47982;PMS5003;33751;50.816;-1.214;2024-01-27T02:38:36;7;7;
47982;PMS5003;33751;50.816;-1.214;2024-01-27T02:41:02;11;10;
47982;PMS5003;33751;50.816;-1.214;2024-01-27T02:43:29;10;10;
47982;PMS5003;33751;50.816;-1.214;2024-01-27T02:45:56;15;10;
47982;PMS5003;33751;50.816;-1.214;2024-01-27T02:48:22;9;9;
47982;PMS5003;33751;50.816;-1.214;2024-01-27T02:50:49;9;9;
47982;PMS5003;33751;50.816;-1.214;2024-01-27T02:53:15;12;11;
47982;PMS5003;33751;50.816;-1.214;2024-01-27T02:55:42;12;12;
47982;PMS5003;33751;50.816;-1.214;2024-01-27T02:58:09;9;9;
47982;PMS5003;33751;50.816;-1.214;2024-01-27T03:00:36;7;7;
47982;PMS5003;33751;50.816;-1.214;2024-01-27T03:03:03;12;11;
47982;PMS5003;33751;50.816;-1.214;2024-01-27T03:05:31;11;11;
47982;PMS5003;33751;50.816;-1.214;2024-01-27T03:07:58;10;9;
47982;PMS5003;33751;50.816;-1.214;2024-01-27T03:10:25;13;10;
47982;PMS5003;33751;50.816;-1.214;2024-01-27T03:12:52;11;10;
47982;PMS5003;33751;50.816;-1.214;2024-01-27T03:15:18;15;9;
47982;PMS5003;33751;50.816;-1.214;2024-01-27T03:17:46;8;8;
47982;PMS5003;33751;50.816;-1.214;2024-01-27T03:20:12;15;12;
47982;PMS5003;33751;50.816;-1.214;2024-01-27T03:22:39;14;13;
47982;PMS5003;33751;50.816;-1.214;2024-01-27T03:25:06;8;7;
47982;PMS5003;33751;50.816;-1.214;2024-01-27T03:27:34;11;11;
47982;PMS5003;33751;50.816;-1.214;2024-01-27T03:30:01;12;11;
47982;PMS5003;33751;50.816;-1.214;2024-01-27T03:32:29;8;8;
47982;PMS5003;33751;50.816;-1.214;2024-01-27T03:34:56;14;11;
47982;PMS5003;33751;50.816;-1.214;2024-01-27T03:37:24;9;9;
47982;PMS5003;33751;50.816;-1.214;2024-01-27T03:39:51;9;9;
47982;PMS5003;33751;50.816;-1.214;2024-01-27T03:42:17;10;10;
47982;PMS5003;33751;50.816;-1.214;2024-01-27T03:44:44;10;9;
47982;PMS5003;33751;50.816;-1.214;2024-01-27T03:47:10;12;12;
47982;PMS5003;33751;50.816;-1.214;2024-01-27T03:49:37;13;11;
47982;PMS5003;33751;50.816;-1.214;2024-01-27T03:52:04;13;13;
47982;PMS5003;33751;50.816;-1.214;2024-01-27T03:54:31;8;8;
47982;PMS5003;33751;50.816;-1.214;2024-01-27T03:56:57;11;9;
47982;PMS5003;33751;50.816;-1.214;2024-01-27T03:59:24;11;9;
47982;PMS5003;33751;50.816;-1.214;2024-01-27T04:01:51;14;11;
47982;PMS5003;33751;50.816;-1.214;2024-01-27T04:04:18;10;8;
47982;PMS5003;33751;50.816;-1.214;2024-01-27T04:06:45;10;10;
47982;PMS5003;33751;50.816;-1.214;2024-01-27T04:09:12;13;9;
47982;PMS5003;33751;50.816;-1.214;2024-01-27T04:11:39;11;11;
47982;PMS5003;33751;50.816;-1.214;2024-01-27T04:14:06;9;9;
47982;PMS5003;33751;50.816;-1.214;2024-01-27T04:16:33;10;10;
47982;PMS5003;33751;50.816;-1.214;2024-01-27T04:19:00;10;10;
47982;PMS5003;33751;50.816;-1.214;2024-01-27T04:21:27;11;9;
47982;PMS5003;33751;50.816;-1.214;2024-01-27T04:23:53;10;10;
47982;PMS5003;33751;50.816;-1.214;2024-01-27T04:26:20;14;11;
47982;PMS5003;33751;50.816;-1.214;2024-01-27T04:28:47;12;9;
47982;PMS5003;33751;50.816;-1.214;2024-01-27T04:31:13;10;8;
47982;PMS5003;33751;50.816;-1.214;2024-01-27T04:33:40;9;9;
47982;PMS5003;33751;50.816;-1.214;2024-01-27T04:36:06;10;9;
47982;PMS5003;33751;50.816;-1.214;2024-01-27T04:38:34;8;7;
47982;PMS5003;33751;50.816;-1.214;2024-01-27T04:41:00;8;8;
47982;PMS5003;33751;50.816;-1.214;2024-01-27T04:43:27;7;6;
47982;PMS5003;33751;50.816;-1.214;2024-01-27T04:45:54;8;8;
47982;PMS5003;33751;50.816;-1.214;2024-01-27T04:48:21;12;10;
47982;PMS5003;33751;50.816;-1.214;2024-01-27T04:50:48;8;8;
47982;PMS5003;33751;50.816;-1.214;2024-01-27T04:53:14;10;9;
47982;PMS5003;33751;50.816;-1.214;2024-01-27T04:55:42;10;9;
47982;PMS5003;33751;50.816;-1.214;2024-01-27T04:58:08;9;8;
47982;PMS5003;33751;50.816;-1.214;2024-01-27T05:00:35;10;10;
47982;PMS5003;33751;50.816;-1.214;2024-01-27T05:03:02;9;9;
47982;PMS5003;33751;50.816;-1.214;2024-01-27T05:05:29;12;9;
47982;PMS5003;33751;50.816;-1.214;2024-01-27T05:07:56;9;9;
47982;PMS5003;33751;50.816;-1.214;2024-01-27T05:10:23;9;9;
47982;PMS5003;33751;50.816;-1.214;2024-01-27T05:12:50;11;10;
47982;PMS5003;33751;50.816;-1.214;2024-01-27T05:15:17;12;11;
47982;PMS5003;33751;50.816;-1.214;2024-01-27T05:17:44;8;8;
47982;PMS5003;33751;50.816;-1.214;2024-01-27T05:20:10;16;10;
47982;PMS5003;33751;50.816;-1.214;2024-01-27T05:22:38;8;8;
47982;PMS5003;33751;50.816;-1.214;2024-01-27T05:25:04;9;9;
47982;PMS5003;33751;50.816;-1.214;2024-01-27T05:27:32;8;8;
47982;PMS5003;33751;50.816;-1.214;2024-01-27T05:29:59;9;8;
47982;PMS5003;33751;50.816;-1.214;2024-01-27T05:32:25;10;9;
47982;PMS5003;33751;50.816;-1.214;2024-01-27T05:34:52;12;12;
47982;PMS5003;33751;50.816;-1.214;2024-01-27T05:37:18;12;9;
47982;PMS5003;33751;50.816;-1.214;2024-01-27T05:39:45;10;9;
47982;PMS5003;33751;50.816;-1.214;2024-01-27T05:42:12;10;10;
47982;PMS5003;33751;50.816;-1.214;2024-01-27T05:44:38;12;11;
47982;PMS5003;33751;50.816;-1.214;2024-01-27T05:47:06;9;9;
47982;PMS5003;33751;50.816;-1.214;2024-01-27T05:49:32;9;9;
47982;PMS5003;33751;50.816;-1.214;2024-01-27T05:51:59;6;6;
47982;PMS5003;33751;50.816;-1.214;2024-01-27T05:54:25;8;8;
47982;PMS5003;33751;50.816;-1.214;2024-01-27T05:56:52;10;9;
47982;PMS5003;33751;50.816;-1.214;2024-01-27T05:59:19;19;11;
47982;PMS5003;33751;50.816;-1.214;2024-01-27T06:01:45;11;8;
47982;PMS5003;33751;50.816;-1.214;2024-01-27T06:04:12;6;6;
47982;PMS5003;33751;50.816;-1.214;2024-01-27T06:06:39;8;8;
47982;PMS5003;33751;50.816;-1.214;2024-01-27T06:09:06;8;8;
47982;PMS5003;33751;50.816;-1.214;2024-01-27T06:11:33;9;9;
47982;PMS5003;33751;50.816;-1.214;2024-01-27T06:14:00;8;7;
47982;PMS5003;33751;50.816;-1.214;2024-01-27T06:16:27;7;7;
47982;PMS5003;33751;50.816;-1.214;2024-01-27T06:18:53;8;8;
47982;PMS5003;33751;50.816;-1.214;2024-01-27T06:21:20;9;8;
47982;PMS5003;33751;50.816;-1.214;2024-01-27T06:23:47;7;7;
47982;PMS5003;33751;50.816;-1.214;2024-01-27T06:26:13;8;8;
47982;PMS5003;33751;50.816;-1.214;2024-01-27T06:28:40;7;7;
47982;PMS5003;33751;50.816;-1.214;2024-01-27T06:31:08;8;7;
47982;PMS5003;33751;50.816;-1.214;2024-01-27T06:33:35;11;10;
47982;PMS5003;33751;50.816;-1.214;2024-01-27T06:36:01;6;6;
47982;PMS5003;33751;50.816;-1.214;2024-01-27T06:38:28;13;8;
47982;PMS5003;33751;50.816;-1.214;2024-01-27T06:40:56;7;7;
47982;PMS5003;33751;50.816;-1.214;2024-01-27T06:43:22;8;8;
47982;PMS5003;33751;50.816;-1.214;2024-01-27T06:45:50;7;6;
47982;PMS5003;33751;50.816;-1.214;2024-01-27T06:48:17;10;9;
47982;PMS5003;33751;50.816;-1.214;2024-01-27T06:50:44;12;10;
47982;PMS5003;33751;50.816;-1.214;2024-01-27T06:53:10;8;7;
47982;PMS5003;33751;50.816;-1.214;2024-01-27T06:55:37;12;9;
47982;PMS5003;33751;50.816;-1.214;2024-01-27T06:58:04;5;5;
47982;PMS5003;33751;50.816;-1.214;2024-01-27T07:00:31;11;9;
47982;PMS5003;33751;50.816;-1.214;2024-01-27T07:02:57;6;6;
47982;PMS5003;33751;50.816;-1.214;2024-01-27T07:05:25;16;7;
47982;PMS5003;33751;50.816;-1.214;2024-01-27T07:07:52;9;8;
47982;PMS5003;33751;50.816;-1.214;2024-01-27T07:10:18;9;6;
47982;PMS5003;33751;50.816;-1.214;2024-01-27T07:12:45;8;8;
47982;PMS5003;33751;50.816;-1.214;2024-01-27T07:15:12;7;7;
47982;PMS5003;33751;50.816;-1.214;2024-01-27T07:17:40;9;8;
47982;PMS5003;33751;50.816;-1.214;2024-01-27T07:20:07;7;7;
47982;PMS5003;33751;50.816;-1.214;2024-01-27T07:22:34;7;6;
47982;PMS5003;33751;50.816;-1.214;2024-01-27T07:25:02;4;4;
47982;PMS5003;33751;50.816;-1.214;2024-01-27T07:27:29;5;5;
47982;PMS5003;33751;50.816;-1.214;2024-01-27T07:29:55;7;6;
47982;PMS5003;33751;50.816;-1.214;2024-01-27T07:32:22;8;8;
47982;PMS5003;33751;50.816;-1.214;2024-01-27T07:34:49;4;4;
47982;PMS5003;33751;50.816;-1.214;2024-01-27T07:37:15;6;6;
47982;PMS5003;33751;50.816;-1.214;2024-01-27T07:39:42;6;6;
47982;PMS5003;33751;50.816;-1.214;2024-01-27T07:42:08;5;5;
47982;PMS5003;33751;50.816;-1.214;2024-01-27T07:44:35;6;6;
47982;PMS5003;33751;50.816;-1.214;2024-01-27T07:47:02;5;5;
47982;PMS5003;33751;50.816;-1.214;2024-01-27T07:49:29;7;5;
47982;PMS5003;33751;50.816;-1.214;2024-01-27T07:51:56;6;6;
47982;PMS5003;33751;50.816;-1.214;2024-01-27T07:54:23;7;7;
47982;PMS5003;33751;50.816;-1.214;2024-01-27T07:56:50;8;8;
47982;PMS5003;33751;50.816;-1.214;2024-01-27T07:59:17;7;7;
47982;PMS5003;33751;50.816;-1.214;2024-01-27T08:01:44;6;6;
47982;PMS5003;33751;50.816;-1.214;2024-01-27T08:04:11;5;5;
47982;PMS5003;33751;50.816;-1.214;2024-01-27T08:06:46;5;5;
47982;PMS5003;33751;50.816;-1.214;2024-01-27T08:09:13;6;6;
47982;PMS5003;33751;50.816;-1.214;2024-01-27T08:11:40;7;5;
47982;PMS5003;33751;50.816;-1.214;2024-01-27T08:14:07;7;6;
47982;PMS5003;33751;50.816;-1.214;2024-01-27T08:16:33;9;7;
47982;PMS5003;33751;50.816;-1.214;2024-01-27T08:19:00;6;6;
47982;PMS5003;33751;50.816;-1.214;2024-01-27T08:21:27;8;5;
47982;PMS5003;33751;50.816;-1.214;2024-01-27T08:23:54;10;6;
47982;PMS5003;33751;50.816;-1.214;2024-01-27T08:26:20;9;4;
47982;PMS5003;33751;50.816;-1.214;2024-01-27T08:28:47;8;6;
47982;PMS5003;33751;50.816;-1.214;2024-01-27T08:31:14;5;5;
47982;PMS5003;33751;50.816;-1.214;2024-01-27T08:33:41;5;5;
47982;PMS5003;33751;50.816;-1.214;2024-01-27T08:36:07;4;4;
47982;PMS5003;33751;50.816;-1.214;2024-01-27T08:38:39;2;2;
47982;PMS5003;33751;50.816;-1.214;2024-01-27T08:41:05;6;5;
47982;PMS5003;33751;50.816;-1.214;2024-01-27T08:43:32;5;5;
47982;PMS5003;33751;50.816;-1.214;2024-01-27T08:45:59;4;4;
47982;PMS5003;33751;50.816;-1.214;2024-01-27T08:48:26;4;4;
47982;PMS5003;33751;50.816;-1.214;2024-01-27T08:50:52;6;6;
47982;PMS5003;33751;50.816;-1.214;2024-01-27T08:53:19;5;5;
47982;PMS5003;33751;50.816;-1.214;2024-01-27T08:55:46;5;5;
47982;PMS5003;33751;50.816;-1.214;2024-01-27T08:58:13;5;5;
47982;PMS5003;33751;50.816;-1.214;2024-01-27T09:00:39;3;3;
47982;PMS5003;33751;50.816;-1.214;2024-01-27T09:03:07;5;4;
47982;PMS5003;33751;50.816;-1.214;2024-01-27T09:05:34;4;4;
47982;PMS5003;33751;50.816;-1.214;2024-01-27T09:08:01;4;4;
47982;PMS5003;33751;50.816;-1.214;2024-01-27T09:10:27;3;3;
47982;PMS5003;33751;50.816;-1.214;2024-01-27T09:12:54;4;4;
47982;PMS5003;33751;50.816;-1.214;2024-01-27T09:15:21;6;4;
47982;PMS5003;33751;50.816;-1.214;2024-01-27T09:17:47;6;5;
47982;PMS5003;33751;50.816;-1.214;2024-01-27T09:20:14;7;5;
47982;PMS5003;33751;50.816;-1.214;2024-01-27T09:22:42;4;4;
47982;PMS5003;33751;50.816;-1.214;2024-01-27T09:25:09;3;3;
47982;PMS5003;33751;50.816;-1.214;2024-01-27T09:27:36;5;5;
47982;PMS5003;33751;50.816;-1.214;2024-01-27T09:30:03;7;5;
47982;PMS5003;33751;50.816;-1.214;2024-01-27T09:32:31;6;5;
47982;PMS5003;33751;50.816;-1.214;2024-01-27T09:34:57;9;6;
47982;PMS5003;33751;50.816;-1.214;2024-01-27T09:37:25;8;5;
47982;PMS5003;33751;50.816;-1.214;2024-01-27T09:39:52;4;4;
47982;PMS5003;33751;50.816;-1.214;2024-01-27T09:42:19;4;4;
47982;PMS5003;33751;50.816;-1.214;2024-01-27T09:44:48;6;5;
47982;PMS5003;33751;50.816;-1.214;2024-01-27T09:47:15;5;4;
47982;PMS5003;33751;50.816;-1.214;2024-01-27T09:49:43;4;4;
47982;PMS5003;33751;50.816;-1.214;2024-01-27T09:52:10;4;4;
47982;PMS5003;33751;50.816;-1.214;2024-01-27T09:54:37;10;5;
47982;PMS5003;33751;50.816;-1.214;2024-01-27T09:57:04;6;6;
47982;PMS5003;33751;50.816;-1.214;2024-01-27T09:59:32;7;6;
47982;PMS5003;33751;50.816;-1.214;2024-01-27T10:01:59;2;2;
47982;PMS5003;33751;50.816;-1.214;2024-01-27T10:04:28;6;4;
47982;PMS5003;33751;50.816;-1.214;2024-01-27T10:06:57;7;5;
47982;PMS5003;33751;50.816;-1.214;2024-01-27T10:09:25;6;4;
47982;PMS5003;33751;50.816;-1.214;2024-01-27T10:11:51;5;5;
47982;PMS5003;33751;50.816;-1.214;2024-01-27T10:14:21;3;3;
47982;PMS5003;33751;50.816;-1.214;2024-01-27T10:16:48;1;1;
47982;PMS5003;33751;50.816;-1.214;2024-01-27T10:19:16;4;4;
47982;PMS5003;33751;50.816;-1.214;2024-01-27T10:21:43;4;4;
47982;PMS5003;33751;50.816;-1.214;2024-01-27T10:24:11;5;3;
47982;PMS5003;33751;50.816;-1.214;2024-01-27T10:26:38;7;5;
47982;PMS5003;33751;50.816;-1.214;2024-01-27T10:29:05;4;4;
47982;PMS5003;33751;50.816;-1.214;2024-01-27T10:31:32;5;3;
47982;PMS5003;33751;50.816;-1.214;2024-01-27T10:34:00;4;4;
47982;PMS5003;33751;50.816;-1.214;2024-01-27T10:36:37;6;5;
47982;PMS5003;33751;50.816;-1.214;2024-01-27T10:39:13;6;5;
47982;PMS5003;33751;50.816;-1.214;2024-01-27T10:41:44;4;4;
47982;PMS5003;33751;50.816;-1.214;2024-01-27T10:44:13;3;3;
47982;PMS5003;33751;50.816;-1.214;2024-01-27T10:46:42;5;3;
47982;PMS5003;33751;50.816;-1.214;2024-01-27T10:49:11;2;2;
47982;PMS5003;33751;50.816;-1.214;2024-01-27T10:51:39;3;3;
47982;PMS5003;33751;50.816;-1.214;2024-01-27T10:54:10;1;1;
47982;PMS5003;33751;50.816;-1.214;2024-01-27T10:56:40;7;4;
47982;PMS5003;33751;50.816;-1.214;2024-01-27T10:59:09;3;3;
47982;PMS5003;33751;50.816;-1.214;2024-01-27T11:01:38;4;3;
47982;PMS5003;33751;50.816;-1.214;2024-01-27T11:04:08;3;2;
47982;PMS5003;33751;50.816;-1.214;2024-01-27T11:06:38;2;2;
47982;PMS5003;33751;50.816;-1.214;2024-01-27T11:09:05;1;1;
47982;PMS5003;33751;50.816;-1.214;2024-01-27T11:11:34;8;2;
47982;PMS5003;33751;50.816;-1.214;2024-01-27T11:14:02;3;2;
47982;PMS5003;33751;50.816;-1.214;2024-01-27T11:16:29;2;2;
47982;PMS5003;33751;50.816;-1.214;2024-01-27T11:18:55;4;3;
47982;PMS5003;33751;50.816;-1.214;2024-01-27T11:21:23;2;2;
47982;PMS5003;33751;50.816;-1.214;2024-01-27T11:23:49;3;3;
47982;PMS5003;33751;50.816;-1.214;2024-01-27T11:26:17;3;2;
47982;PMS5003;33751;50.816;-1.214;2024-01-27T11:28:47;3;3;
47982;PMS5003;33751;50.816;-1.214;2024-01-27T11:31:16;10;5;
47982;PMS5003;33751;50.816;-1.214;2024-01-27T11:33:46;2;2;
47982;PMS5003;33751;50.816;-1.214;2024-01-27T11:36:18;3;3;
47982;PMS5003;33751;50.816;-1.214;2024-01-27T11:38:45;5;2;
47982;PMS5003;33751;50.816;-1.214;2024-01-27T11:41:12;3;3;
47982;PMS5003;33751;50.816;-1.214;2024-01-27T11:43:39;3;3;
47982;PMS5003;33751;50.816;-1.214;2024-01-27T11:46:06;3;3;
47982;PMS5003;33751;50.816;-1.214;2024-01-27T11:48:33;4;2;
47982;PMS5003;33751;50.816;-1.214;2024-01-27T11:51:10;4;3;
47982;PMS5003;33751;50.816;-1.214;2024-01-27T11:53:38;2;2;
47982;PMS5003;33751;50.816;-1.214;2024-01-27T11:56:05;3;3;
47982;PMS5003;33751;50.816;-1.214;2024-01-27T11:58:33;3;3;
47982;PMS5003;33751;50.816;-1.214;2024-01-27T12:01:00;2;2;
47982;PMS5003;33751;50.816;-1.214;2024-01-27T12:03:27;4;4;
47982;PMS5003;33751;50.816;-1.214;2024-01-27T12:05:56;4;4;
47982;PMS5003;33751;50.816;-1.214;2024-01-27T12:08:22;4;4;
47982;PMS5003;33751;50.816;-1.214;2024-01-27T12:10:49;2;1;
47982;PMS5003;33751;50.816;-1.214;2024-01-27T12:13:16;4;4;
47982;PMS5003;33751;50.816;-1.214;2024-01-27T12:15:42;4;3;
47982;PMS5003;33751;50.816;-1.214;2024-01-27T12:18:09;4;2;
47982;PMS5003;33751;50.816;-1.214;2024-01-27T12:20:37;2;2;
47982;PMS5003;33751;50.816;-1.214;2024-01-27T12:23:05;4;4;
47982;PMS5003;33751;50.816;-1.214;2024-01-27T12:25:32;3;2;
47982;PMS5003;33751;50.816;-1.214;2024-01-27T12:28:01;5;3;
47982;PMS5003;33751;50.816;-1.214;2024-01-27T12:30:29;4;3;
47982;PMS5003;33751;50.816;-1.214;2024-01-27T12:32:58;7;4;
47982;PMS5003;33751;50.816;-1.214;2024-01-27T12:35:26;9;5;
47982;PMS5003;33751;50.816;-1.214;2024-01-27T12:37:53;3;3;
47982;PMS5003;33751;50.816;-1.214;2024-01-27T12:40:20;1;1;
47982;PMS5003;33751;50.816;-1.214;2024-01-27T12:42:48;3;3;
47982;PMS5003;33751;50.816;-1.214;2024-01-27T12:45:16;3;3;
47982;PMS5003;33751;50.816;-1.214;2024-01-27T12:47:43;5;2;
47982;PMS5003;33751;50.816;-1.214;2024-01-27T12:50:09;1;1;
47982;PMS5003;33751;50.816;-1.214;2024-01-27T12:52:36;5;4;
47982;PMS5003;33751;50.816;-1.214;2024-01-27T12:55:04;6;6;
47982;PMS5003;33751;50.816;-1.214;2024-01-27T12:57:32;6;4;
47982;PMS5003;33751;50.816;-1.214;2024-01-27T12:59:59;10;4;
47982;PMS5003;33751;50.816;-1.214;2024-01-27T13:02:25;3;3;
47982;PMS5003;33751;50.816;-1.214;2024-01-27T13:04:53;7;4;
47982;PMS5003;33751;50.816;-1.214;2024-01-27T13:07:20;5;4;
47982;PMS5003;33751;50.816;-1.214;2024-01-27T13:09:47;3;2;
47982;PMS5003;33751;50.816;-1.214;2024-01-27T13:12:15;9;2;
47982;PMS5003;33751;50.816;-1.214;2024-01-27T13:14:41;3;3;
47982;PMS5003;33751;50.816;-1.214;2024-01-27T13:17:08;5;3;
47982;PMS5003;33751;50.816;-1.214;2024-01-27T13:19:35;1;1;
47982;PMS5003;33751;50.816;-1.214;2024-01-27T13:22:02;2;2;
47982;PMS5003;33751;50.816;-1.214;2024-01-27T13:24:29;4;1;
47982;PMS5003;33751;50.816;-1.214;2024-01-27T13:26:55;3;2;
47982;PMS5003;33751;50.816;-1.214;2024-01-27T13:29:23;5;1;
47982;PMS5003;33751;50.816;-1.214;2024-01-27T13:31:50;5;2;
47982;PMS5003;33751;50.816;-1.214;2024-01-27T13:34:17;2;2;
47982;PMS5003;33751;50.816;-1.214;2024-01-27T13:36:44;1;1;
47982;PMS5003;33751;50.816;-1.214;2024-01-27T13:39:11;2;2;
47982;PMS5003;33751;50.816;-1.214;2024-01-27T13:41:37;0;0;
47982;PMS5003;33751;50.816;-1.214;2024-01-27T13:44:04;5;3;
47982;PMS5003;33751;50.816;-1.214;2024-01-27T13:46:30;1;1;
47982;PMS5003;33751;50.816;-1.214;2024-01-27T13:48:57;1;1;
47982;PMS5003;33751;50.816;-1.214;2024-01-27T13:51:23;0;0;
47982;PMS5003;33751;50.816;-1.214;2024-01-27T13:53:50;2;2;
47982;PMS5003;33751;50.816;-1.214;2024-01-27T13:56:17;3;3;
47982;PMS5003;33751;50.816;-1.214;2024-01-27T13:58:44;2;1;
47982;PMS5003;33751;50.816;-1.214;2024-01-27T14:01:10;1;1;
47982;PMS5003;33751;50.816;-1.214;2024-01-27T14:03:37;7;4;
47982;PMS5003;33751;50.816;-1.214;2024-01-27T14:06:05;3;3;
47982;PMS5003;33751;50.816;-1.214;2024-01-27T14:08:32;2;2;
47982;PMS5003;33751;50.816;-1.214;2024-01-27T14:11:00;2;2;
47982;PMS5003;33751;50.816;-1.214;2024-01-27T14:13:27;4;2;
47982;PMS5003;33751;50.816;-1.214;2024-01-27T14:15:53;2;2;
47982;PMS5003;33751;50.816;-1.214;2024-01-27T14:18:20;1;1;
47982;PMS5003;33751;50.816;-1.214;2024-01-27T14:20:46;3;1;
47982;PMS5003;33751;50.816;-1.214;2024-01-27T14:23:14;0;0;
47982;PMS5003;33751;50.816;-1.214;2024-01-27T14:25:40;0;0;
47982;PMS5003;33751;50.816;-1.214;2024-01-27T14:28:07;1;1;
47982;PMS5003;33751;50.816;-1.214;2024-01-27T14:30:34;0;0;
47982;PMS5003;33751;50.816;-1.214;2024-01-27T14:33:00;1;1;
47982;PMS5003;33751;50.816;-1.214;2024-01-27T14:35:27;0;0;
47982;PMS5003;33751;50.816;-1.214;2024-01-27T14:37:53;1;1;
47982;PMS5003;33751;50.816;-1.214;2024-01-27T14:40:20;0;0;
47982;PMS5003;33751;50.816;-1.214;2024-01-27T14:42:47;0;0;
47982;PMS5003;33751;50.816;-1.214;2024-01-27T14:45:14;2;2;
47982;PMS5003;33751;50.816;-1.214;2024-01-27T14:47:41;1;1;
47982;PMS5003;33751;50.816;-1.214;2024-01-27T14:50:08;1;1;
47982;PMS5003;33751;50.816;-1.214;2024-01-27T14:52:36;0;0;
47982;PMS5003;33751;50.816;-1.214;2024-01-27T14:55:03;1;1;
47982;PMS5003;33751;50.816;-1.214;2024-01-27T14:57:29;0;0;
47982;PMS5003;33751;50.816;-1.214;2024-01-27T14:59:56;0;0;
47982;PMS5003;33751;50.816;-1.214;2024-01-27T15:02:22;1;1;
47982;PMS5003;33751;50.816;-1.214;2024-01-27T15:04:49;0;0;
47982;PMS5003;33751;50.816;-1.214;2024-01-27T15:07:15;2;0;
47982;PMS5003;33751;50.816;-1.214;2024-01-27T15:09:42;0;0;
47982;PMS5003;33751;50.816;-1.214;2024-01-27T15:12:08;0;0;
47982;PMS5003;33751;50.816;-1.214;2024-01-27T15:14:35;0;0;
47982;PMS5003;33751;50.816;-1.214;2024-01-27T15:17:01;0;0;
47982;PMS5003;33751;50.816;-1.214;2024-01-27T15:19:28;1;1;
47982;PMS5003;33751;50.816;-1.214;2024-01-27T15:21:55;0;0;
47982;PMS5003;33751;50.816;-1.214;2024-01-27T15:24:22;0;0;
47982;PMS5003;33751;50.816;-1.214;2024-01-27T15:26:49;3;3;
47982;PMS5003;33751;50.816;-1.214;2024-01-27T15:29:16;1;1;
47982;PMS5003;33751;50.816;-1.214;2024-01-27T15:31:43;2;2;
47982;PMS5003;33751;50.816;-1.214;2024-01-27T15:34:09;0;0;
47982;PMS5003;33751;50.816;-1.214;2024-01-27T15:36:35;0;0;
47982;PMS5003;33751;50.816;-1.214;2024-01-27T15:39:02;1;1;
47982;PMS5003;33751;50.816;-1.214;2024-01-27T15:41:28;2;2;
47982;PMS5003;33751;50.816;-1.214;2024-01-27T15:43:55;1;1;
47982;PMS5003;33751;50.816;-1.214;2024-01-27T15:46:22;1;1;
47982;PMS5003;33751;50.816;-1.214;2024-01-27T15:48:49;4;2;
47982;PMS5003;33751;50.816;-1.214;2024-01-27T15:51:16;6;2;
47982;PMS5003;33751;50.816;-1.214;2024-01-27T15:53:42;2;2;
47982;PMS5003;33751;50.816;-1.214;2024-01-27T15:56:10;1;1;
47982;PMS5003;33751;50.816;-1.214;2024-01-27T15:58:36;2;1;
47982;PMS5003;33751;50.816;-1.214;2024-01-27T16:01:03;2;2;
47982;PMS5003;33751;50.816;-1.214;2024-01-27T16:03:30;1;1;
47982;PMS5003;33751;50.816;-1.214;2024-01-27T16:05:56;3;3;
47982;PMS5003;33751;50.816;-1.214;2024-01-27T16:08:23;2;1;
47982;PMS5003;33751;50.816;-1.214;2024-01-27T16:10:49;3;2;
47982;PMS5003;33751;50.816;-1.214;2024-01-27T16:13:15;2;2;
47982;PMS5003;33751;50.816;-1.214;2024-01-27T16:15:43;5;2;
47982;PMS5003;33751;50.816;-1.214;2024-01-27T16:18:10;4;2;
47982;PMS5003;33751;50.816;-1.214;2024-01-27T16:20:37;4;3;
47982;PMS5003;33751;50.816;-1.214;2024-01-27T16:23:03;2;2;
47982;PMS5003;33751;50.816;-1.214;2024-01-27T16:25:30;1;1;
47982;PMS5003;33751;50.816;-1.214;2024-01-27T16:27:57;4;3;